Time;durP1;ratioP1;P1;durP2;ratioP2;P2;SDS_P1;SDS_P2;PMS_P1;PMS_P2;Temp;Humidity;BMP_temperature;BMP_pressure;BME280_temperature;BME280_humidity;BME280_pressure;Samples;Min_cycle;Max_cycle;Signal;HPM_P1;HPM_P2
2024/04/03 00:02:58;;;;;;;0.30;0.30;;;;;;;;;;6249321;28;20029;-80
2024/04/03 00:05:58;;;;;;;0.30;0.30;;;;;;;;;;6243943;28;20112;-79
2024/04/03 00:08:59;;;;;;;0.43;0.30;;;;;;;;;;6248665;28;20029;-78
2024/04/03 00:11:59;;;;;;;0.30;0.30;;;;;;;;;;6264896;28;20107;-79
2024/04/03 00:14:59;;;;;;;0.30;0.30;;;;;;;;;;6245416;28;20026;-78
2024/04/03 00:17:59;;;;;;;0.27;0.27;;;;;;;;;;6250633;28;20055;-78
2024/04/03 00:21:01;;;;;;;0.20;0.20;;;;;;;;;;6247912;28;20417;-78
2024/04/03 00:24:01;;;;;;;0.40;0.30;;;;;;;;;;6249808;28;20037;-79
2024/04/03 00:27:01;;;;;;;0.30;0.20;;;;;;;;;;6246688;28;20497;-77
2024/04/03 00:30:01;;;;;;;0.20;0.20;;;;;;;;;;6248997;28;20024;-77
2024/04/03 00:33:02;;;;;;;0.30;0.20;;;;;;;;;;6249110;28;20036;-77
2024/04/03 00:36:02;;;;;;;0.13;0.13;;;;;;;;;;6244976;28;20132;-78
2024/04/03 00:39:02;;;;;;;0.10;0.10;;;;;;;;;;6248972;28;20523;-77
2024/04/03 00:42:03;;;;;;;0.10;0.10;;;;;;;;;;6247604;28;20473;-77
2024/04/03 00:45:03;;;;;;;0.30;0.10;;;;;;;;;;6249349;28;20473;-77
2024/04/03 00:48:04;;;;;;;0.10;0.10;;;;;;;;;;6246946;28;20078;-77
2024/04/03 00:51:05;;;;;;;0.30;0.10;;;;;;;;;;6247903;28;20025;-78
2024/04/03 00:54:05;;;;;;;0.20;0.20;;;;;;;;;;6248075;28;20116;-79
2024/04/03 00:57:05;;;;;;;0.17;0.10;;;;;;;;;;6244554;28;20034;-78
2024/04/03 01:00:06;;;;;;;0.30;0.20;;;;;;;;;;6256250;28;20075;-77
2024/04/03 01:03:07;;;;;;;0.10;0.10;;;;;;;;;;6246603;28;20037;-79
2024/04/03 01:06:08;;;;;;;0.45;0.20;;;;;;;;;;6250016;28;20032;-78
2024/04/03 01:09:08;;;;;;;;;;;;;;;;;;6248733;28;20022;-78
2024/04/03 01:12:08;;;;;;;0.10;0.10;;;;;;;;;;6247365;28;20022;-78
2024/04/03 01:15:11;;;;;;;0.37;0.20;;;;;;;;;;6247948;28;20104;-79
2024/04/03 01:18:11;;;;;;;0.30;0.10;;;;;;;;;;6251493;28;20025;-78
2024/04/03 01:21:11;;;;;;;0.30;0.20;;;;;;;;;;6253315;28;20048;-78
2024/04/03 01:24:11;;;;;;;0.37;0.20;;;;;;;;;;6248435;28;20036;-79
2024/04/03 01:27:11;;;;;;;0.20;0.20;;;;;;;;;;6249837;28;20055;-81
2024/04/03 01:30:12;;;;;;;0.10;0.10;;;;;;;;;;6245599;28;20095;-79
2024/04/03 01:33:12;;;;;;;0.40;0.10;;;;;;;;;;6243216;28;20080;-79
2024/04/03 01:36:13;;;;;;;0.13;0.13;;;;;;;;;;6246099;28;20418;-79
2024/04/03 01:39:15;;;;;;;0.20;0.20;;;;;;;;;;6254262;28;20104;-79
2024/04/03 01:42:17;;;;;;;0.10;0.10;;;;;;;;;;6246225;28;20041;-80
2024/04/03 01:45:17;;;;;;;0.10;0.10;;;;;;;;;;6249530;28;20099;-80
2024/04/03 01:48:18;;;;;;;0.23;0.13;;;;;;;;;;6244854;28;20025;-80
2024/04/03 01:51:18;;;;;;;0.40;0.20;;;;;;;;;;6242970;28;20484;-80
2024/04/03 01:54:18;;;;;;;0.20;0.13;;;;;;;;;;6257473;28;20508;-79
2024/04/03 01:57:19;;;;;;;0.10;0.10;;;;;;;;;;6253976;28;20470;-80
2024/04/03 02:00:19;;;;;;;0.10;0.10;;;;;;;;;;6255779;28;20056;-80
2024/04/03 02:03:20;;;;;;;0.33;0.20;;;;;;;;;;6257774;28;20029;-79
2024/04/03 02:06:20;;;;;;;0.10;0.10;;;;;;;;;;6266899;28;20025;-79
2024/04/03 02:09:20;;;;;;;0.10;0.10;;;;;;;;;;6268297;28;20478;-79
2024/04/03 02:12:21;;;;;;;0.20;0.20;;;;;;;;;;6254914;28;20017;-79
2024/04/03 02:15:21;;;;;;;0.10;0.10;;;;;;;;;;6268582;28;20017;-79
2024/04/03 02:18:22;;;;;;;0.40;0.20;;;;;;;;;;6253012;28;20085;-79
2024/04/03 02:21:22;;;;;;;0.20;0.20;;;;;;;;;;6255679;28;20021;-79
2024/04/03 02:24:22;;;;;;;0.67;0.30;;;;;;;;;;6264411;28;20381;-79
2024/04/03 02:27:23;;;;;;;1.47;0.20;;;;;;;;;;6254698;28;20025;-79
2024/04/03 02:30:23;;;;;;;0.73;0.20;;;;;;;;;;6256011;28;20462;-79
2024/04/03 02:33:23;;;;;;;0.10;0.10;;;;;;;;;;6257787;28;20467;-79
2024/04/03 02:36:23;;;;;;;0.90;0.20;;;;;;;;;;6257917;28;20537;-79
2024/04/03 02:39:24;;;;;;;0.20;0.20;;;;;;;;;;6261552;28;20554;-79
2024/04/03 02:42:24;;;;;;;0.10;0.10;;;;;;;;;;6251011;28;20083;-79
2024/04/03 02:45:24;;;;;;;0.30;0.30;;;;;;;;;;6260096;28;20079;-79
2024/04/03 02:48:25;;;;;;;0.53;0.20;;;;;;;;;;6263888;28;20025;-78
2024/04/03 02:51:25;;;;;;;0.13;0.13;;;;;;;;;;6264764;28;20090;-79
2024/04/03 02:54:25;;;;;;;0.30;0.20;;;;;;;;;;6253781;28;20070;-79
2024/04/03 02:57:25;;;;;;;0.27;0.20;;;;;;;;;;6260620;28;20086;-79
2024/04/03 03:00:26;;;;;;;0.90;0.23;;;;;;;;;;6268698;28;20121;-79
2024/04/03 03:03:29;;;;;;;0.32;0.22;;;;;;;;;;6258646;28;20098;-80
2024/04/03 03:06:29;;;;;;;0.32;0.20;;;;;;;;;;6259487;28;20445;-79
2024/04/03 03:09:29;;;;;;;0.17;0.10;;;;;;;;;;6258206;28;20128;-80
2024/04/03 03:12:30;;;;;;;0.30;0.20;;;;;;;;;;6269080;28;20496;-79
2024/04/03 03:15:30;;;;;;;0.83;0.40;;;;;;;;;;6269239;28;20029;-79
2024/04/03 03:18:33;;;;;;;0.10;0.10;;;;;;;;;;6270469;28;20462;-80
2024/04/03 03:21:33;;;;;;;0.10;0.10;;;;;;;;;;6259751;28;20021;-80
2024/04/03 03:24:33;;;;;;;0.40;0.20;;;;;;;;;;6273562;28;20029;-79
2024/04/03 03:27:33;;;;;;;0.37;0.20;;;;;;;;;;6258820;28;20386;-79
2024/04/03 03:30:33;;;;;;;0.20;0.20;;;;;;;;;;6267760;28;20111;-79
2024/04/03 03:33:35;;;;;;;0.30;0.20;;;;;;;;;;6265177;28;20056;-80
2024/04/03 03:36:35;;;;;;;0.40;0.30;;;;;;;;;;6247960;28;20087;-80
2024/04/03 03:39:36;;;;;;;0.50;0.20;;;;;;;;;;6260691;28;20490;-80
2024/04/03 03:42:36;;;;;;;0.30;0.30;;;;;;;;;;6270439;28;20075;-78
2024/04/03 03:45:46;;;;;;;0.40;0.37;;;;;;;;;;6256464;28;20043;-80
2024/04/03 03:55:30;;;;;;;0.50;0.30;;;;;;;;;;6263377;28;20037;-79
2024/04/03 03:58:31;;;;;;;0.73;0.40;;;;;;;;;;6258632;28;20595;-79
2024/04/03 04:01:31;;;;;;;0.40;0.27;;;;;;;;;;6266688;28;20029;-80
2024/04/03 04:04:31;;;;;;;0.43;0.37;;;;;;;;;;6264929;28;20039;-79
2024/04/03 04:07:34;;;;;;;0.80;0.50;;;;;;;;;;6265174;28;20033;-80
2024/04/03 04:10:34;;;;;;;0.40;0.38;;;;;;;;;;6259959;28;20106;-79
2024/04/03 04:13:35;;;;;;;0.50;0.40;;;;;;;;;;6259664;28;20358;-79
2024/04/03 04:16:35;;;;;;;1.30;0.20;;;;;;;;;;6263256;28;20049;-79
2024/04/03 04:19:36;;;;;;;0.30;0.30;;;;;;;;;;6259382;28;20433;-79
2024/04/03 04:22:36;;;;;;;0.70;0.40;;;;;;;;;;6271552;28;20025;-79
2024/04/03 04:25:36;;;;;;;1.20;0.93;;;;;;;;;;6270939;28;20048;-81
2024/04/03 04:28:36;;;;;;;2.30;1.40;;;;;;;;;;6259954;28;20029;-81
2024/04/03 04:31:37;;;;;;;1.60;0.90;;;;;;;;;;6250595;28;20373;-79
2024/04/03 04:34:40;;;;;;;0.67;0.57;;;;;;;;;;6269920;28;20362;-79
2024/04/03 04:37:41;;;;;;;0.70;0.30;;;;;;;;;;6258957;28;20401;-80
2024/04/03 04:40:41;;;;;;;0.20;0.20;;;;;;;;;;6260352;28;20035;-79
2024/04/03 04:43:41;;;;;;;0.20;0.20;;;;;;;;;;6262394;28;20039;-80
2024/04/03 04:46:41;;;;;;;0.70;0.20;;;;;;;;;;6251277;28;20028;-79
2024/04/03 04:49:42;;;;;;;0.53;0.20;;;;;;;;;;6256534;28;20367;-82
2024/04/03 04:52:42;;;;;;;0.10;0.10;;;;;;;;;;6255987;28;20104;-79
2024/04/03 04:55:50;;;;;;;0.20;0.13;;;;;;;;;;6260552;28;20537;-79
2024/04/03 04:58:50;;;;;;;0.30;0.20;;;;;;;;;;6270917;28;20460;-79
2024/04/03 05:01:51;;;;;;;0.33;0.20;;;;;;;;;;6254717;28;20183;-80
2024/04/03 05:04:52;;;;;;;0.17;0.13;;;;;;;;;;6249269;28;20029;-79
2024/04/03 05:07:52;;;;;;;;;;;;;;;;;;6254746;28;20384;-81
2024/04/03 05:10:56;;;;;;;0.10;0.10;;;;;;;;;;6250600;28;19971;-80
2024/04/03 05:13:56;;;;;;;0.40;0.20;;;;;;;;;;6263855;28;20075;-79
2024/04/03 05:16:57;;;;;;;0.10;0.10;;;;;;;;;;6262031;28;20072;-79
2024/04/03 05:19:57;;;;;;;0.43;0.30;;;;;;;;;;6255728;28;20450;-79
2024/04/03 05:22:57;;;;;;;2.37;0.77;;;;;;;;;;6256697;28;20036;-79
2024/04/03 05:26:04;;;;;;;2.23;1.27;;;;;;;;;;6262614;28;20033;-79
2024/04/03 05:29:05;;;;;;;1.15;0.90;;;;;;;;;;6246875;28;20032;-79
2024/04/03 05:32:05;;;;;;;1.00;0.70;;;;;;;;;;6267776;28;20025;-79
2024/04/03 05:35:06;;;;;;;0.40;0.30;;;;;;;;;;6259501;28;20402;-78
2024/04/03 05:38:06;;;;;;;0.37;0.33;;;;;;;;;;6257207;28;20021;-79
2024/04/03 05:41:08;;;;;;;1.47;0.40;;;;;;;;;;6266031;28;20029;-81
2024/04/03 05:44:08;;;;;;;0.85;0.32;;;;;;;;;;6249375;28;20114;-78
2024/04/03 05:47:08;;;;;;;1.03;0.30;;;;;;;;;;6263599;28;20482;-78
2024/04/03 05:50:10;;;;;;;0.23;0.23;;;;;;;;;;6265886;28;20564;-80
2024/04/03 05:53:10;;;;;;;;;;;;;;;;;;6255069;28;20387;-78
2024/04/03 05:56:10;;;;;;;0.63;0.40;;;;;;;;;;6259756;28;19947;-80
2024/04/03 05:59:10;;;;;;;0.50;0.30;;;;;;;;;;6260761;28;22585;-84
2024/04/03 06:02:11;;;;;;;0.73;0.40;;;;;;;;;;6254893;28;20045;-81
2024/04/03 06:05:11;;;;;;;0.22;0.20;;;;;;;;;;6265703;28;20041;-78
2024/04/03 06:08:12;;;;;;;0.30;0.30;;;;;;;;;;6270091;28;20041;-80
2024/04/03 06:11:12;;;;;;;0.30;0.30;;;;;;;;;;6263502;28;20109;-79
2024/04/03 06:14:12;;;;;;;0.47;0.30;;;;;;;;;;6262967;28;20132;-78
2024/04/03 06:17:13;;;;;;;0.30;0.30;;;;;;;;;;6262168;28;20474;-79
2024/04/03 06:20:13;;;;;;;0.20;0.20;;;;;;;;;;6250436;28;20482;-85
2024/04/03 06:23:13;;;;;;;0.40;0.27;;;;;;;;;;6264711;28;20060;-80
2024/04/03 06:26:13;;;;;;;0.60;0.23;;;;;;;;;;6265173;28;20512;-80
2024/04/03 06:29:14;;;;;;;0.20;0.20;;;;;;;;;;6259162;28;20079;-81
2024/04/03 06:32:14;;;;;;;0.20;0.15;;;;;;;;;;6263056;28;20533;-82
2024/04/03 06:35:15;;;;;;;0.13;0.13;;;;;;;;;;6259375;28;20445;-81
2024/04/03 06:38:15;;;;;;;0.37;0.30;;;;;;;;;;6255499;28;20044;-82
2024/04/03 06:41:15;;;;;;;0.53;0.30;;;;;;;;;;6269660;28;20374;-81
2024/04/03 06:44:15;;;;;;;0.70;0.30;;;;;;;;;;6253447;28;20470;-81
2024/04/03 06:47:16;;;;;;;0.60;0.57;;;;;;;;;;6262366;28;20031;-82
2024/04/03 06:50:17;;;;;;;0.30;0.28;;;;;;;;;;6248887;28;20403;-81
2024/04/03 06:53:17;;;;;;;0.83;0.33;;;;;;;;;;6258045;28;20067;-83
2024/04/03 06:56:17;;;;;;;0.20;0.20;;;;;;;;;;6261608;28;20028;-83
2024/04/03 06:59:17;;;;;;;1.60;0.23;;;;;;;;;;6265201;28;20021;-82
2024/04/03 07:02:18;;;;;;;2.07;0.20;;;;;;;;;;6256202;28;20415;-81
2024/04/03 07:05:18;;;;;;;0.20;0.20;;;;;;;;;;6260701;28;20369;-81
2024/04/03 07:08:18;;;;;;;1.10;0.10;;;;;;;;;;6262391;28;20457;-85
2024/04/03 07:11:18;;;;;;;0.23;0.10;;;;;;;;;;6263680;28;20550;-81
2024/04/03 07:14:19;;;;;;;0.87;0.17;;;;;;;;;;6263297;28;20056;-80
2024/04/03 07:17:19;;;;;;;0.30;0.30;;;;;;;;;;6252343;28;20577;-80
2024/04/03 07:20:19;;;;;;;0.30;0.30;;;;;;;;;;6259799;28;20556;-80
2024/04/03 07:23:25;;;;;;;0.33;0.30;;;;;;;;;;6263318;28;20894;-80
2024/04/03 07:26:26;;;;;;;0.30;0.22;;;;;;;;;;6258760;28;20018;-80
2024/04/03 07:29:26;;;;;;;0.45;0.25;;;;;;;;;;6265309;28;20079;-80
2024/04/03 07:32:27;;;;;;;1.80;0.40;;;;;;;;;;6259010;28;20037;-80
2024/04/03 07:35:28;;;;;;;0.30;0.20;;;;;;;;;;6267456;28;20063;-80
2024/04/03 07:38:30;;;;;;;0.60;0.20;;;;;;;;;;6265997;28;20029;-81
2024/04/03 07:41:33;;;;;;;0.50;0.30;;;;;;;;;;6266536;28;20109;-81
2024/04/03 07:44:33;;;;;;;0.30;0.25;;;;;;;;;;6257262;28;20059;-81
2024/04/03 07:47:37;;;;;;;0.37;0.20;;;;;;;;;;6263179;28;20354;-81
2024/04/03 07:50:40;;;;;;;1.40;0.25;;;;;;;;;;6260210;28;20025;-81
2024/04/03 07:53:40;;;;;;;0.30;0.22;;;;;;;;;;6269837;28;20031;-80
2024/04/03 07:56:40;;;;;;;0.37;0.20;;;;;;;;;;6268427;28;20489;-80
2024/04/03 07:59:41;;;;;;;0.50;0.40;;;;;;;;;;6251062;28;20401;-81
2024/04/03 08:02:42;;;;;;;1.77;0.90;;;;;;;;;;6257313;28;20405;-81
2024/04/03 08:05:43;;;;;;;1.77;0.90;;;;;;;;;;6265822;28;20040;-80
2024/04/03 08:08:43;;;;;;;1.30;0.90;;;;;;;;;;6271945;28;20056;-81
2024/04/03 08:11:44;;;;;;;1.07;0.67;;;;;;;;;;6263912;28;20056;-81
2024/04/03 08:14:44;;;;;;;0.63;0.40;;;;;;;;;;6268821;28;20771;-81
2024/04/03 08:17:44;;;;;;;0.90;0.50;;;;;;;;;;6259402;28;20108;-80
2024/04/03 08:20:44;;;;;;;0.40;0.30;;;;;;;;;;6261516;28;20035;-81
2024/04/03 08:23:45;;;;;;;0.27;0.27;;;;;;;;;;6265075;28;20270;-83
2024/04/03 08:26:45;;;;;;;;;;;;;;;;;;6262896;28;20485;-81
2024/04/03 08:29:48;;;;;;;0.30;0.20;;;;;;;;;;6263779;28;20369;-81
2024/04/03 08:32:49;;;;;;;0.20;0.20;;;;;;;;;;6263233;28;20170;-82
2024/04/03 08:35:57;;;;;;;0.47;0.20;;;;;;;;;;6258542;28;20057;-75
2024/04/03 08:38:57;;;;;;;0.60;0.20;;;;;;;;;;6260913;28;20021;-75
2024/04/03 08:41:58;;;;;;;0.43;0.30;;;;;;;;;;6256939;28;20056;-75
2024/04/03 08:44:58;;;;;;;;;;;;;;;;;;6265670;28;20087;-75
2024/04/03 08:47:59;;;;;;;0.93;0.63;;;;;;;;;;6265634;28;19909;-81
2024/04/03 08:50:59;;;;;;;;;;;;;;;;;;6260436;28;20021;-81
2024/04/03 08:54:03;;;;;;;0.80;0.60;;;;;;;;;;6260953;28;20019;-81
2024/04/03 08:57:05;;;;;;;0.70;0.30;;;;;;;;;;6255763;28;20517;-82
2024/04/03 09:00:08;;;;;;;0.52;0.30;;;;;;;;;;6252928;28;20032;-81
2024/04/03 09:03:10;;;;;;;0.32;0.25;;;;;;;;;;6249399;28;20037;-81
2024/04/03 09:06:11;;;;;;;0.50;0.30;;;;;;;;;;6249979;28;20142;-81
2024/04/03 09:09:21;;;;;;;0.30;0.30;;;;;;;;;;6251734;28;20433;-81
2024/04/03 09:12:25;;;;;;;0.40;0.30;;;;;;;;;;6252950;28;20378;-82
2024/04/03 09:15:26;;;;;;;0.40;0.30;;;;;;;;;;6258807;28;20022;-81
2024/04/03 09:18:27;;;;;;;0.20;0.20;;;;;;;;;;6252208;28;20034;-83
2024/04/03 09:21:27;;;;;;;;;;;;;;;;;;6248912;28;20098;-82
2024/04/03 09:24:31;;;;;;;0.20;0.10;;;;;;;;;;6248421;28;19913;-81
2024/04/03 09:27:31;;;;;;;0.20;0.20;;;;;;;;;;6254843;28;20032;-81
2024/04/03 09:30:33;;;;;;;;;;;;;;;;;;6252408;28;20441;-81
2024/04/03 09:33:34;;;;;;;0.47;0.20;;;;;;;;;;6245542;28;19913;-81
2024/04/03 09:36:35;;;;;;;1.05;0.30;;;;;;;;;;6247486;28;20045;-84
2024/04/03 09:39:35;;;;;;;;;;;;;;;;;;6250638;28;20025;-80
2024/04/03 09:42:36;;;;;;;0.23;0.20;;;;;;;;;;6253110;28;20483;-80
2024/04/03 09:45:38;;;;;;;1.35;0.32;;;;;;;;;;6256765;28;20391;-85
2024/04/03 09:48:39;;;;;;;0.55;0.20;;;;;;;;;;5900301;28;10000267;-80
2024/04/03 09:51:39;;;;;;;0.17;0.17;;;;;;;;;;6252659;28;20029;-81
2024/04/03 09:54:39;;;;;;;;;;;;;;;;;;6258157;28;20037;-77
2024/04/03 09:57:40;;;;;;;0.17;0.17;;;;;;;;;;6265006;28;20284;-80
2024/04/03 10:00:40;;;;;;;;;;;;;;;;;;6261596;28;20097;-81
2024/04/03 10:03:41;;;;;;;0.10;0.10;;;;;;;;;;6255522;28;19913;-80
2024/04/03 10:06:41;;;;;;;;;;;;;;;;;;6263964;28;20032;-81
2024/04/03 10:09:41;;;;;;;0.20;0.20;;;;;;;;;;6263327;28;19978;-80
2024/04/03 10:12:41;;;;;;;;;;;;;;;;;;6262755;28;20033;-78
2024/04/03 10:15:42;;;;;;;0.13;0.05;;;;;;;;;;6262699;28;20005;-78
2024/04/03 10:18:43;;;;;;;;;;;;;;;;;;6266097;28;20147;-77
2024/04/03 10:21:43;;;;;;;0.10;0.10;;;;;;;;;;6266948;28;19967;-78
2024/04/03 10:24:44;;;;;;;;;;;;;;;;;;6261118;28;20388;-73
2024/04/03 10:27:44;;;;;;;0.30;0.25;;;;;;;;;;6263316;28;19993;-74
2024/04/03 10:30:47;;;;;;;;;;;;;;;;;;6261908;28;20061;-73
2024/04/03 10:33:48;;;;;;;0.10;0.10;;;;;;;;;;6263899;28;19921;-75
2024/04/03 10:36:49;;;;;;;0.35;0.30;;;;;;;;;;6268074;28;20057;-75
2024/04/03 10:39:49;;;;;;;;;;;;;;;;;;6256070;28;20044;-73
2024/04/03 10:42:49;;;;;;;0.73;0.20;;;;;;;;;;6253986;28;20373;-75
2024/04/03 10:45:50;;;;;;;;;;;;;;;;;;6264092;28;20032;-73
2024/04/03 10:48:52;;;;;;;1.60;0.20;;;;;;;;;;6249880;28;19947;-74
2024/04/03 10:51:52;;;;;;;1.75;0.10;;;;;;;;;;6257752;28;20163;-74
2024/04/03 10:54:53;;;;;;;;;;;;;;;;;;6267274;28;20466;-73
2024/04/03 10:57:53;;;;;;;1.15;0.30;;;;;;;;;;6259287;28;19916;-76
2024/04/03 11:00:53;;;;;;;;;;;;;;;;;;6266992;28;20095;-76
2024/04/03 11:03:53;;;;;;;0.50;0.20;;;;;;;;;;6261147;28;20391;-75
2024/04/03 11:06:57;;;;;;;0.20;0.20;;;;;;;;;;6261455;28;20025;-75
2024/04/03 11:09:57;;;;;;;0.30;0.25;;;;;;;;;;6262528;28;20044;-76
2024/04/03 11:12:57;;;;;;;;;;;;;;;;;;6273962;28;20429;-76
2024/04/03 11:15:58;;;;;;;0.20;0.20;;;;;;;;;;6270546;28;20015;-76
2024/04/03 11:18:59;;;;;;;0.20;0.20;;;;;;;;;;6265969;28;20026;-75
2024/04/03 11:21:59;;;;;;;;;;;;;;;;;;6257763;28;20441;-77
2024/04/03 11:25:00;;;;;;;0.50;0.30;;;;;;;;;;6262877;28;19913;-77
2024/04/03 11:28:01;;;;;;;1.80;0.25;;;;;;;;;;6262750;28;20029;-77
2024/04/03 11:31:01;;;;;;;;;;;;;;;;;;6263681;28;20025;-78
2024/04/03 11:34:02;;;;;;;0.20;0.10;;;;;;;;;;6264075;28;19923;-76
2024/04/03 11:37:03;;;;;;;0.20;0.10;;;;;;;;;;6270233;28;20132;-76
2024/04/03 11:40:06;;;;;;;0.22;0.20;;;;;;;;;;6260091;28;20051;-77
2024/04/03 11:43:06;;;;;;;1.10;0.25;;;;;;;;;;6269630;28;20386;-76
2024/04/03 11:46:06;;;;;;;0.30;0.20;;;;;;;;;;6272023;28;20021;-76
2024/04/03 11:49:07;;;;;;;0.50;0.47;;;;;;;;;;6261778;28;20492;-77
2024/04/03 11:52:07;;;;;;;0.70;0.22;;;;;;;;;;6250763;28;20721;-77
2024/04/03 11:55:09;;;;;;;0.20;0.20;;;;;;;;;;6262458;28;20095;-76
2024/04/03 11:58:09;;;;;;;0.10;0.10;;;;;;;;;;6255461;28;20037;-76
2024/04/03 12:01:09;;;;;;;0.13;0.10;;;;;;;;;;6250442;28;20490;-76
2024/04/03 12:04:09;;;;;;;0.13;0.10;;;;;;;;;;6256544;28;20279;-76
2024/04/03 12:07:13;;;;;;;0.17;0.17;;;;;;;;;;6248343;28;20772;-76
2024/04/03 12:10:14;;;;;;;0.30;0.30;;;;;;;;;;6250111;28;20282;-76
2024/04/03 12:13:14;;;;;;;0.70;0.30;;;;;;;;;;6250972;28;20139;-75
2024/04/03 12:16:20;;;;;;;0.43;0.30;;;;;;;;;;6250208;28;20132;-76
2024/04/03 12:19:26;;;;;;;0.15;0.15;;;;;;;;;;6250117;28;20264;-76
2024/04/03 12:22:26;;;;;;;0.52;0.30;;;;;;;;;;6253167;28;20028;-75
2024/04/03 12:25:27;;;;;;;0.27;0.27;;;;;;;;;;6248942;28;20367;-75
2024/04/03 12:28:27;;;;;;;0.33;0.20;;;;;;;;;;6255292;28;20275;-76
2024/04/03 12:31:27;;;;;;;0.25;0.25;;;;;;;;;;6253360;28;20268;-82
2024/04/03 12:34:28;;;;;;;0.32;0.20;;;;;;;;;;6250355;28;20118;-82
2024/04/03 12:37:28;;;;;;;0.40;0.22;;;;;;;;;;6250993;28;20053;-78
2024/04/03 12:40:28;;;;;;;0.30;0.20;;;;;;;;;;6245647;28;20034;-78
2024/04/03 12:43:29;;;;;;;0.20;0.20;;;;;;;;;;6257675;28;20272;-78
2024/04/03 12:46:29;;;;;;;0.20;0.20;;;;;;;;;;6248010;28;20280;-77
2024/04/03 12:49:29;;;;;;;0.30;0.20;;;;;;;;;;6249846;28;20025;-77
2024/04/03 12:52:29;;;;;;;0.10;0.10;;;;;;;;;;6254147;28;20849;-77
2024/04/03 12:55:30;;;;;;;0.27;0.23;;;;;;;;;;6251819;28;20272;-77
2024/04/03 12:58:30;;;;;;;0.30;0.20;;;;;;;;;;6248802;28;20835;-78
2024/04/03 13:01:30;;;;;;;0.20;0.20;;;;;;;;;;6250830;28;20284;-77
2024/04/03 13:04:30;;;;;;;0.30;0.30;;;;;;;;;;6252578;28;20878;-77
2024/04/03 13:07:31;;;;;;;0.15;0.15;;;;;;;;;;6249860;28;20029;-77
2024/04/03 13:10:32;;;;;;;0.45;0.20;;;;;;;;;;6253095;28;20029;-77
2024/04/03 13:13:33;;;;;;;0.13;0.13;;;;;;;;;;6253670;28;20496;-77
2024/04/03 13:16:34;;;;;;;0.73;0.40;;;;;;;;;;6252623;28;20033;-76
2024/04/03 13:19:34;;;;;;;0.70;0.30;;;;;;;;;;6249999;28;20025;-76
2024/04/03 13:22:34;;;;;;;0.20;0.20;;;;;;;;;;6250955;28;20032;-77
2024/04/03 13:25:35;;;;;;;0.33;0.30;;;;;;;;;;6249369;28;20271;-77
2024/04/03 13:28:36;;;;;;;0.40;0.40;;;;;;;;;;6249612;28;20284;-77
2024/04/03 13:31:36;;;;;;;0.20;0.20;;;;;;;;;;6250181;28;20025;-77
2024/04/03 13:34:36;;;;;;;0.65;0.20;;;;;;;;;;6252944;28;20022;-77
2024/04/03 13:37:37;;;;;;;0.20;0.20;;;;;;;;;;6255116;28;20071;-78
2024/04/03 13:40:37;;;;;;;1.10;0.22;;;;;;;;;;6256301;28;20069;-77
2024/04/03 13:43:37;;;;;;;0.40;0.30;;;;;;;;;;6252705;28;20095;-77
2024/04/03 13:46:38;;;;;;;1.23;0.40;;;;;;;;;;6249628;28;20268;-77
2024/04/03 13:49:39;;;;;;;0.27;0.20;;;;;;;;;;6255128;28;20347;-78
2024/04/03 13:52:40;;;;;;;0.32;0.22;;;;;;;;;;6249832;28;20366;-78
2024/04/03 13:55:41;;;;;;;0.20;0.20;;;;;;;;;;6252444;28;20025;-77
2024/04/03 13:58:41;;;;;;;0.20;0.20;;;;;;;;;;6252582;28;20466;-77
2024/04/03 14:01:42;;;;;;;0.40;0.30;;;;;;;;;;6251044;28;20812;-76
2024/04/03 14:04:42;;;;;;;1.03;0.40;;;;;;;;;;6253014;28;20021;-79
2024/04/03 14:07:43;;;;;;;0.75;0.45;;;;;;;;;;6250947;28;20272;-79
2024/04/03 14:10:43;;;;;;;0.40;0.40;;;;;;;;;;6248737;28;20021;-79
2024/04/03 14:13:46;;;;;;;0.47;0.40;;;;;;;;;;6242387;28;20072;-79
2024/04/03 14:16:48;;;;;;;0.35;0.20;;;;;;;;;;6249456;28;20037;-79
2024/04/03 14:19:49;;;;;;;0.20;0.20;;;;;;;;;;6252311;28;20026;-80
2024/04/03 14:22:49;;;;;;;0.30;0.30;;;;;;;;;;6255512;28;20029;-79
2024/04/03 14:25:50;;;;;;;0.20;0.20;;;;;;;;;;6248441;28;20056;-79
2024/04/03 14:28:50;;;;;;;0.40;0.30;;;;;;;;;;6242163;28;20450;-79
2024/04/03 14:31:51;;;;;;;;;;;;;;;;;;6237526;28;20087;-79
2024/04/03 14:34:51;;;;;;;0.47;0.30;;;;;;;;;;6245055;28;20340;-80
2024/04/03 14:37:56;;;;;;;;;;;;;;;;;;6252054;28;20108;-80
2024/04/03 14:40:56;;;;;;;0.20;0.20;;;;;;;;;;6249266;28;19912;-79
2024/04/03 14:43:56;;;;;;;;;;;;;;;;;;6257154;28;20543;-80
2024/04/03 14:46:56;;;;;;;0.60;0.23;;;;;;;;;;6260695;28;19909;-83
2024/04/03 14:49:57;;;;;;;0.40;0.37;;;;;;;;;;6258267;28;20035;-80
2024/04/03 14:52:57;;;;;;;;;;;;;;;;;;6259229;28;20260;-79
2024/04/03 14:55:57;;;;;;;0.60;0.50;;;;;;;;;;6277776;28;19913;-77
2024/04/03 14:58:57;;;;;;;;;;;;;;;;;;6276997;28;20035;-78
2024/04/03 15:01:58;;;;;;;3.00;0.47;;;;;;;;;;6265305;28;19955;-78
2024/04/03 15:04:58;;;;;;;;;;;;;;;;;;6265442;28;20037;-78
2024/04/03 15:07:58;;;;;;;0.75;0.55;;;;;;;;;;6256531;28;19913;-79
2024/04/03 15:10:58;;;;;;;;;;;;;;;;;;6258798;28;20083;-80
2024/04/03 15:13:59;;;;;;;0.55;0.40;;;;;;;;;;6259001;28;19909;-81
2024/04/03 15:16:59;;;;;;;;;;;;;;;;;;6264304;28;20488;-79
2024/04/03 15:19:59;;;;;;;0.30;0.30;;;;;;;;;;6262517;28;19909;-77
2024/04/03 15:22:59;;;;;;;;;;;;;;;;;;6265383;28;20064;-78
2024/04/03 15:26:04;;;;;;;0.13;0.13;;;;;;;;;;6259595;28;19921;-81
2024/04/03 15:29:04;;;;;;;0.30;0.30;;;;;;;;;;6261944;28;20013;-80
2024/04/03 15:32:08;;;;;;;;;;;;;;;;;;6269646;28;20036;-79
2024/04/03 15:35:08;;;;;;;0.20;0.20;;;;;;;;;;6257646;28;19925;-80
2024/04/03 15:38:08;;;;;;;;;;;;;;;;;;6270627;28;20025;-83
2024/04/03 15:41:09;;;;;;;0.60;0.30;;;;;;;;;;6256082;28;19913;-80
2024/04/03 15:44:10;;;;;;;0.60;0.50;;;;;;;;;;6266111;28;20121;-79
2024/04/03 15:47:10;;;;;;;;;;;;;;;;;;6267260;28;20033;-78
2024/04/03 15:50:10;;;;;;;0.95;0.35;;;;;;;;;;6261506;28;19984;-76
2024/04/03 15:53:10;;;;;;;;;;;;;;;;;;6259076;28;20029;-76
2024/04/03 15:56:14;;;;;;;1.13;0.23;;;;;;;;;;6254053;28;20361;-78
2024/04/03 15:59:15;;;;;;;0.30;0.30;;;;;;;;;;6254444;28;20395;-78
2024/04/03 16:02:15;;;;;;;;;;;;;;;;;;6262728;28;20470;-76
2024/04/03 16:05:15;;;;;;;0.25;0.20;;;;;;;;;;6242303;28;19969;-76
2024/04/03 16:08:15;;;;;;;;;;;;;;;;;;6240558;28;20489;-77
2024/04/03 16:11:16;;;;;;;0.63;0.40;;;;;;;;;;6247967;28;20361;-75
2024/04/03 16:14:17;;;;;;;1.20;0.40;;;;;;;;;;6252992;28;20134;-76
2024/04/03 16:17:17;;;;;;;;;;;;;;;;;;6242070;28;20511;-80
2024/04/03 16:20:17;;;;;;;0.25;0.25;;;;;;;;;;6245689;28;19916;-78
2024/04/03 16:23:17;;;;;;;;;;;;;;;;;;6247085;28;20029;-74
2024/04/03 16:26:18;;;;;;;0.40;0.40;;;;;;;;;;6255690;28;19913;-77
2024/04/03 16:29:18;;;;;;;;;;;;;;;;;;6247422;28;20029;-75
2024/04/03 16:32:18;;;;;;;0.38;0.30;;;;;;;;;;6245965;28;19963;-76
2024/04/03 16:35:18;;;;;;;;;;;;;;;;;;6248982;28;20513;-77
2024/04/03 16:38:19;;;;;;;1.20;0.82;;;;;;;;;;6246050;28;20365;-75
2024/04/03 16:41:19;;;;;;;;;;;;;;;;;;6248057;28;20037;-76
2024/04/03 16:44:19;;;;;;;0.70;0.43;;;;;;;;;;6248818;28;19920;-75
2024/04/03 16:47:19;;;;;;;;;;;;;;;;;;6248063;28;20017;-77
2024/04/03 16:50:20;;;;;;;0.60;0.40;;;;;;;;;;6249299;28;19909;-76
2024/04/03 16:53:20;;;;;;;;;;;;;;;;;;6249301;28;20417;-76
2024/04/03 16:56:20;;;;;;;0.88;0.50;;;;;;;;;;6249072;28;20373;-77
2024/04/03 16:59:20;;;;;;;;;;;;;;;;;;6246675;28;20079;-79
2024/04/03 17:02:21;;;;;;;0.98;0.65;;;;;;;;;;6244324;28;19935;-78
2024/04/03 17:05:21;;;;;;;;;;;;;;;;;;6247430;28;20024;-75
2024/04/03 17:08:21;;;;;;;1.10;0.60;;;;;;;;;;6246124;28;19921;-79
2024/04/03 17:11:21;;;;;;;;;;;;;;;;;;6246785;28;20382;-81
2024/04/03 17:14:22;;;;;;;0.60;0.50;;;;;;;;;;6245292;28;19913;-80
2024/04/03 17:17:22;;;;;;;;;;;;;;;;;;6245911;28;20025;-83
2024/04/03 17:20:22;;;;;;;0.70;0.70;;;;;;;;;;6242009;28;19909;-78
2024/04/03 17:23:22;;;;;;;;;;;;;;;;;;6246744;28;20464;-79
2024/04/03 17:26:22;;;;;;;1.35;0.65;;;;;;;;;;6249507;28;19909;-79
2024/04/03 17:29:24;;;;;;;1.27;0.60;;;;;;;;;;6247722;28;20029;-79
2024/04/03 17:32:24;;;;;;;0.70;0.60;;;;;;;;;;6247184;28;20359;-79
2024/04/03 17:35:25;;;;;;;0.93;0.73;;;;;;;;;;6245348;28;20053;-79
2024/04/03 17:38:25;;;;;;;;;;;;;;;;;;6246081;28;20471;-79
2024/04/03 17:41:25;;;;;;;1.25;0.80;;;;;;;;;;6246667;28;19917;-78
2024/04/03 17:44:25;;;;;;;;;;;;;;;;;;6239285;28;20034;-79
2024/04/03 17:47:27;;;;;;;0.68;0.60;;;;;;;;;;6248680;28;19909;-78
2024/04/03 17:50:27;;;;;;;1.63;0.70;;;;;;;;;;6235237;28;20065;-79
2024/04/03 17:53:27;;;;;;;1.60;0.93;;;;;;;;;;6244118;28;20063;-81
2024/04/03 17:56:27;;;;;;;;;;;;;;;;;;6239364;28;20477;-80
2024/04/03 17:59:28;;;;;;;1.92;0.80;;;;;;;;;;6244448;28;19913;-80
2024/04/03 18:02:28;;;;;;;;;;;;;;;;;;6241128;28;20079;-80
2024/04/03 18:05:28;;;;;;;1.13;0.60;;;;;;;;;;6241231;28;19917;-80
2024/04/03 18:08:33;;;;;;;0.93;0.50;;;;;;;;;;6241042;28;20028;-81
2024/04/03 18:11:34;;;;;;;1.95;0.50;;;;;;;;;;6240374;28;20291;-81
2024/04/03 18:14:34;;;;;;;0.65;0.60;;;;;;;;;;6243503;28;20033;-80
2024/04/03 18:17:36;;;;;;;;;;;;;;;;;;6246149;28;20036;-81
2024/04/03 18:20:36;;;;;;;0.57;0.55;;;;;;;;;;6235116;28;20313;-80
2024/04/03 18:23:36;;;;;;;;;;;;;;;;;;6243544;28;20056;-80
2024/04/03 18:26:36;;;;;;;0.90;0.50;;;;;;;;;;6244387;28;19913;-79
2024/04/03 18:29:37;;;;;;;0.95;0.40;;;;;;;;;;6244387;28;20466;-79
2024/04/03 18:32:37;;;;;;;1.83;0.60;;;;;;;;;;6246744;28;20067;-79